Terminal Aerodrome Forecast
Issued by NWS

Home | Current Version | Previous Version | Text Only | Print | Product List | Glossary On
Versions: 1 2 3 4 5 6 7 8 9 10 11 12 13 14 15 16 17 18 19 20 21 22 23 24 25 26 27 28 29 30 31 32 33 34 35
000
FTUS46 KOTX 210520
TAFSFF
TAF
KSFF 210520Z 2106/2206 20012KT P6SM -RA SCT025 BKN040 OVC060
     FM210900 20012KT 6SM +RA BKN020 OVC040
     FM211100 20012KT P6SM -RA SCT025 BKN040 OVC060
     FM211400 21012G16KT P6SM BKN030 BKN040
     FM220400 18008KT P6SM SCT050 SCT120 SCT200=

USA.gov is the U.S. government's official web portal to all federal, state and local government web resources and services.